createdAt,value
2023-02-07T00:01:29.076Z,10.30
2023-02-07T00:03:42.994Z,10.27
2023-02-07T00:05:56.623Z,10.23
2023-02-07T00:08:11.756Z,10.21
2023-02-07T00:10:25.270Z,10.20
2023-02-07T00:12:38.807Z,10.22
2023-02-07T00:14:52.024Z,10.21
2023-02-07T00:17:05.667Z,10.23
2023-02-07T00:19:19.624Z,10.26
2023-02-07T00:21:35.784Z,10.27
2023-02-07T00:23:49.792Z,10.24
2023-02-07T00:26:03.539Z,10.21
2023-02-07T00:28:16.866Z,10.18
2023-02-07T00:30:30.071Z,10.13
2023-02-07T00:32:43.263Z,10.04
2023-02-07T00:34:56.308Z,9.98
2023-02-07T00:37:09.855Z,9.94
2023-02-07T00:39:24.137Z,9.91
2023-02-07T00:41:38.818Z,9.87
2023-02-07T00:43:53.035Z,9.84
2023-02-07T00:46:07.491Z,9.81
2023-02-07T00:48:20.355Z,9.77
2023-02-07T00:50:33.957Z,9.75
2023-02-07T00:52:47.732Z,9.75
2023-02-07T00:55:01.316Z,9.73
2023-02-07T00:57:14.588Z,9.73
2023-02-07T00:59:28.555Z,9.73
2023-02-07T01:01:42.357Z,9.74
2023-02-07T01:03:56.058Z,9.73
2023-02-07T01:06:09.793Z,9.72
2023-02-07T01:08:24.308Z,9.72
2023-02-07T01:10:38.149Z,9.70
2023-02-07T01:12:52.497Z,9.68
2023-02-07T01:15:06.445Z,9.66
2023-02-07T01:17:20.169Z,9.64
2023-02-07T01:19:34.840Z,9.63
2023-02-07T01:21:48.111Z,9.63
2023-02-07T01:24:02.126Z,9.63
2023-02-07T01:26:15.864Z,9.64
2023-02-07T01:28:29.634Z,9.62
2023-02-07T01:30:45.814Z,9.59
2023-02-07T01:32:59.671Z,9.55
2023-02-07T01:35:13.425Z,9.51
2023-02-07T01:37:26.439Z,9.48
2023-02-07T01:39:44.611Z,9.45
2023-02-07T01:42:02.461Z,9.44
2023-02-07T01:45:07.208Z,9.44
2023-02-07T01:47:24.269Z,9.43
2023-02-07T01:49:40.958Z,9.42
2023-02-07T01:51:57.195Z,9.40
2023-02-07T01:54:15.164Z,9.40
2023-02-07T01:56:31.874Z,9.39
2023-02-07T01:58:47.144Z,9.36
2023-02-07T02:01:00.821Z,9.35
2023-02-07T02:03:14.043Z,9.33
2023-02-07T02:05:28.397Z,9.32
2023-02-07T02:07:42.854Z,9.31
2023-02-07T02:09:57.043Z,9.29
2023-02-07T02:12:28.098Z,9.29
2023-02-07T02:14:56.808Z,9.29
2023-02-07T02:17:20.466Z,9.28
2023-02-07T02:20:06.064Z,9.27
2023-02-07T02:23:08.904Z,9.24
2023-02-07T02:25:50.298Z,9.23
2023-02-07T02:28:28.018Z,9.22
2023-02-07T02:31:13.421Z,9.22
2023-02-07T02:33:44.877Z,9.23
2023-02-07T02:36:08.134Z,9.24
2023-02-07T02:38:28.466Z,9.24
2023-02-07T02:40:49.920Z,9.23
2023-02-07T02:43:09.286Z,9.21
2023-02-07T02:45:27.424Z,9.20
2023-02-07T02:47:43.077Z,9.19
2023-02-07T02:49:56.948Z,9.20
2023-02-07T02:52:11.400Z,9.20
2023-02-07T02:54:36.998Z,9.22
2023-02-07T02:57:09.979Z,9.24
2023-02-07T02:59:51.135Z,9.25
2023-02-07T03:02:20.010Z,9.27
2023-02-07T03:04:52.032Z,9.27
2023-02-07T03:07:23.209Z,9.27
2023-02-07T03:09:45.392Z,9.26
2023-02-07T03:12:13.259Z,9.26
2023-02-07T03:14:34.794Z,9.27
2023-02-07T03:16:55.247Z,9.28
2023-02-07T03:19:15.633Z,9.29
2023-02-07T03:21:34.828Z,9.29
2023-02-07T03:23:50.847Z,9.30
2023-02-07T03:26:06.838Z,9.29
2023-02-07T03:28:23.766Z,9.29
2023-02-07T03:30:41.949Z,9.27
2023-02-07T03:32:59.721Z,9.25
2023-02-07T03:35:19.254Z,9.22
2023-02-07T03:37:39.115Z,9.21
2023-02-07T03:39:52.365Z,9.19
2023-02-07T03:42:08.726Z,9.16
2023-02-07T03:44:26.013Z,9.16
2023-02-07T03:46:41.453Z,9.14
2023-02-07T03:48:55.174Z,9.12
2023-02-07T03:51:08.825Z,9.11
2023-02-07T03:53:22.873Z,9.10
2023-02-07T03:55:36.722Z,9.11
2023-02-07T03:57:50.107Z,9.12
2023-02-07T04:00:03.415Z,9.14
2023-02-07T04:02:26.004Z,9.15
2023-02-07T04:04:39.587Z,9.16
2023-02-07T04:06:52.688Z,9.16
2023-02-07T04:09:07.108Z,9.16
2023-02-07T04:11:20.400Z,9.14
2023-02-07T04:13:33.704Z,9.13
2023-02-07T04:15:48.019Z,9.12
2023-02-07T04:18:00.982Z,9.14
2023-02-07T04:20:16.968Z,9.15
2023-02-07T04:22:30.062Z,9.14
2023-02-07T04:24:43.072Z,9.14
2023-02-07T04:26:57.379Z,9.14
2023-02-07T04:29:11.100Z,9.14
2023-02-07T04:31:24.342Z,9.14
2023-02-07T04:33:37.984Z,9.14
2023-02-07T04:35:56.976Z,9.14
2023-02-07T04:38:10.318Z,9.11
2023-02-07T04:40:24.165Z,9.09
2023-02-07T04:42:37.164Z,9.07
2023-02-07T04:44:50.268Z,9.05
2023-02-07T04:47:04.134Z,9.02
2023-02-07T04:49:18.019Z,9.01
2023-02-07T04:51:31.063Z,8.98
2023-02-07T04:53:44.958Z,8.96
2023-02-07T04:55:59.674Z,8.94
2023-02-07T04:58:13.634Z,8.92
2023-02-07T05:00:27.562Z,8.91
2023-02-07T05:02:41.375Z,8.90
2023-02-07T05:04:56.466Z,8.89
2023-02-07T05:07:09.550Z,8.89
2023-02-07T05:09:23.179Z,8.87
2023-02-07T05:11:36.213Z,8.88
2023-02-07T05:13:49.814Z,8.87
2023-02-07T05:16:05.296Z,8.87
2023-02-07T05:18:18.580Z,8.86
2023-02-07T05:20:32.073Z,8.86
2023-02-07T05:22:46.091Z,8.86
2023-02-07T05:24:59.889Z,8.87
2023-02-07T05:27:13.571Z,8.87
2023-02-07T05:29:26.699Z,8.87
2023-02-07T05:31:56.768Z,8.87
2023-02-07T05:34:09.892Z,8.88
2023-02-07T05:36:23.160Z,8.89
2023-02-07T05:38:36.848Z,8.90
2023-02-07T05:40:51.037Z,8.91
2023-02-07T05:43:04.519Z,8.92
2023-02-07T05:45:17.596Z,8.94
2023-02-07T05:47:30.886Z,8.95
2023-02-07T05:49:44.512Z,8.96
2023-02-07T05:51:57.945Z,8.97
2023-02-07T05:54:13.885Z,8.99
2023-02-07T05:56:27.012Z,9.00
2023-02-07T05:58:40.500Z,9.01
2023-02-07T06:00:58.204Z,9.01
2023-02-07T06:03:11.356Z,9.01
2023-02-07T06:05:25.938Z,9.02
2023-02-07T06:07:39.929Z,9.02
2023-02-07T06:09:53.274Z,9.03
2023-02-07T06:12:06.547Z,9.04
2023-02-07T06:14:19.680Z,9.05
2023-02-07T06:16:33.139Z,9.06
2023-02-07T06:18:46.984Z,9.07
2023-02-07T06:21:01.051Z,9.08
2023-02-07T06:23:14.318Z,9.09
2023-02-07T06:25:27.851Z,9.09
2023-02-07T06:27:42.037Z,9.09
2023-02-07T06:29:55.881Z,9.10
2023-02-07T06:32:09.956Z,9.11
2023-02-07T06:34:23.832Z,9.13
2023-02-07T06:36:37.042Z,9.14
2023-02-07T06:38:50.321Z,9.15
2023-02-07T06:41:03.165Z,9.14
2023-02-07T06:43:16.286Z,9.15
2023-02-07T06:45:29.522Z,9.16
2023-02-07T06:47:42.548Z,9.16
2023-02-07T06:49:55.516Z,9.16
2023-02-07T06:52:08.665Z,9.17
2023-02-07T06:54:21.737Z,9.19
2023-02-07T06:56:36.450Z,9.20
2023-02-07T06:58:49.534Z,9.20
2023-02-07T07:01:04.443Z,9.22
2023-02-07T07:03:20.139Z,9.24
2023-02-07T07:05:33.782Z,9.25
2023-02-07T07:07:46.887Z,9.26
2023-02-07T07:10:00.060Z,9.26
2023-02-07T07:12:13.849Z,9.25
2023-02-07T07:14:26.977Z,9.24
2023-02-07T07:16:41.881Z,9.24
2023-02-07T07:18:55.050Z,9.25
2023-02-07T07:21:08.661Z,9.26
2023-02-07T07:23:21.903Z,9.28
2023-02-07T07:25:35.408Z,9.28
2023-02-07T07:27:49.059Z,9.28
2023-02-07T07:30:02.421Z,9.29
2023-02-07T07:32:28.704Z,9.30
2023-02-07T07:34:46.737Z,9.31
2023-02-07T07:37:00.315Z,9.32
2023-02-07T07:39:13.262Z,9.32
2023-02-07T07:41:26.737Z,9.32
2023-02-07T07:43:39.755Z,9.32
2023-02-07T07:45:56.469Z,9.33
2023-02-07T07:48:09.758Z,9.33
2023-02-07T07:50:23.252Z,9.33
2023-02-07T07:52:36.642Z,9.33
2023-02-07T07:54:50.133Z,9.33
2023-02-07T07:57:03.098Z,9.33
2023-02-07T07:59:23.856Z,9.32
2023-02-07T08:01:37.587Z,9.33
2023-02-07T08:03:50.849Z,9.33
2023-02-07T08:06:04.266Z,9.33
2023-02-07T08:08:17.746Z,9.33
2023-02-07T08:10:31.341Z,9.33
2023-02-07T08:12:45.780Z,9.34
2023-02-07T08:14:59.862Z,9.36
2023-02-07T08:17:13.256Z,9.37
2023-02-07T08:19:26.252Z,9.38
2023-02-07T08:21:39.288Z,9.40
2023-02-07T08:23:57.027Z,9.40
2023-02-07T08:26:11.672Z,9.40
2023-02-07T08:28:25.458Z,9.41
2023-02-07T08:30:39.237Z,9.41
2023-02-07T08:32:53.505Z,9.41
2023-02-07T08:35:06.994Z,9.42
2023-02-07T08:37:20.213Z,9.44
2023-02-07T08:39:34.304Z,9.45
2023-02-07T08:41:47.833Z,9.47
2023-02-07T08:44:00.755Z,9.48
2023-02-07T08:46:14.400Z,9.49
2023-02-07T08:48:27.438Z,9.50
2023-02-07T08:50:40.985Z,9.51
2023-02-07T08:52:54.281Z,9.53
2023-02-07T08:55:08.204Z,9.53
2023-02-07T08:57:24.334Z,9.53
2023-02-07T08:59:38.294Z,9.53
2023-02-07T09:01:51.621Z,9.53
2023-02-07T09:04:05.170Z,9.54
2023-02-07T09:06:19.004Z,9.55
2023-02-07T09:08:33.465Z,9.55
2023-02-07T09:10:49.688Z,9.56
2023-02-07T09:13:02.977Z,9.55
2023-02-07T09:15:17.317Z,9.54
2023-02-07T09:17:31.316Z,9.53
2023-02-07T09:19:44.485Z,9.54
2023-02-07T09:21:58.657Z,9.54
2023-02-07T09:24:12.590Z,9.54
2023-02-07T09:26:27.877Z,9.55
2023-02-07T09:31:14.448Z,9.57
2023-02-07T09:33:28.495Z,9.57
2023-02-07T09:35:45.509Z,9.58
2023-02-07T09:38:03.126Z,9.57
2023-02-07T09:40:22.215Z,9.57
2023-02-07T09:42:45.384Z,9.57
2023-02-07T09:45:05.530Z,9.57
2023-02-07T09:47:22.591Z,9.56
2023-02-07T09:49:43.893Z,9.57
2023-02-07T09:51:59.963Z,9.56
2023-02-07T09:54:24.800Z,9.56
2023-02-07T09:56:39.452Z,9.56
2023-02-07T09:59:00.777Z,9.56
2023-02-07T10:01:19.068Z,9.56
2023-02-07T10:03:33.304Z,9.56
2023-02-07T10:05:52.416Z,9.56
2023-02-07T10:08:05.968Z,9.55
2023-02-07T10:10:28.342Z,9.55
2023-02-07T10:13:11.188Z,9.54
2023-02-07T10:15:45.122Z,9.53
2023-02-07T10:18:15.425Z,9.53
2023-02-07T10:20:40.443Z,9.52
2023-02-07T10:23:01.141Z,9.52
2023-02-07T10:25:35.733Z,9.53
2023-02-07T10:28:01.729Z,9.52
2023-02-07T10:30:19.891Z,9.53
2023-02-07T10:32:36.473Z,9.53
2023-02-07T10:34:53.150Z,9.54
2023-02-07T10:37:18.682Z,9.55
2023-02-07T10:39:35.775Z,9.56
2023-02-07T10:41:49.516Z,9.57
2023-02-07T10:44:03.313Z,9.57
2023-02-07T10:46:21.682Z,9.56
2023-02-07T10:48:35.100Z,9.55
2023-02-07T10:50:48.825Z,9.56
2023-02-07T10:53:02.674Z,9.55
2023-02-07T10:55:17.296Z,9.55
2023-02-07T10:57:31.546Z,9.55
2023-02-07T10:59:48.463Z,9.53
2023-02-07T11:02:02.087Z,9.52
2023-02-07T11:04:37.274Z,9.50
2023-02-07T11:06:50.175Z,9.46
2023-02-07T11:09:24.007Z,9.44
2023-02-07T11:11:41.795Z,9.41
2023-02-07T11:13:56.445Z,9.39
2023-02-07T11:16:12.948Z,9.37
2023-02-07T11:18:46.056Z,9.35
2023-02-07T11:20:59.353Z,9.33
2023-02-07T11:23:18.164Z,9.32
2023-02-07T11:25:38.726Z,9.31
2023-02-07T11:27:53.074Z,9.31
2023-02-07T11:30:11.708Z,9.30
2023-02-07T11:32:26.064Z,9.30
2023-02-07T11:34:54.110Z,9.30
2023-02-07T11:37:28.236Z,9.28
2023-02-07T11:39:41.875Z,9.27
2023-02-07T11:42:05.179Z,9.28
2023-02-07T11:44:28.984Z,9.29
2023-02-07T11:46:44.842Z,9.31
2023-02-07T11:49:01.339Z,9.32
2023-02-07T11:51:18.974Z,9.35
2023-02-07T11:53:37.785Z,9.36
2023-02-07T11:55:52.987Z,9.38
2023-02-07T11:58:11.877Z,9.40
2023-02-07T12:00:27.981Z,9.42
2023-02-07T12:02:41.718Z,9.43
2023-02-07T12:04:55.875Z,9.44
2023-02-07T12:07:11.823Z,9.46
2023-02-07T12:09:43.766Z,9.47
2023-02-07T12:11:59.241Z,9.49
2023-02-07T12:14:21.743Z,9.49
2023-02-07T12:16:39.150Z,9.49
2023-02-07T12:18:59.420Z,9.48
2023-02-07T12:21:21.690Z,9.49
2023-02-07T12:23:45.233Z,9.49
2023-02-07T12:26:03.470Z,9.50
2023-02-07T12:28:24.619Z,9.51
2023-02-07T12:30:44.436Z,9.51
2023-02-07T12:33:07.273Z,9.51
2023-02-07T12:35:23.705Z,9.50
2023-02-07T12:37:45.761Z,9.48
2023-02-07T12:40:05.624Z,9.47
2023-02-07T12:42:33.245Z,9.46
2023-02-07T12:44:51.543Z,9.46
2023-02-07T12:47:11.752Z,9.45
2023-02-07T12:49:46.566Z,9.46
2023-02-07T12:52:11.453Z,9.47
2023-02-07T12:54:36.402Z,9.48
2023-02-07T12:56:57.193Z,9.49
2023-02-07T12:59:19.415Z,9.50
2023-02-07T13:01:41.799Z,9.51
2023-02-07T13:04:12.479Z,9.53
2023-02-07T13:06:37.158Z,9.53
2023-02-07T13:09:04.237Z,9.55
2023-02-07T13:11:31.914Z,9.56
2023-02-07T13:13:54.305Z,9.56
2023-02-07T13:16:15.035Z,9.56
2023-02-07T13:18:35.817Z,9.56
2023-02-07T13:21:06.992Z,9.54
2023-02-07T13:23:26.616Z,9.54
2023-02-07T13:25:44.700Z,9.54
2023-02-07T13:28:00.468Z,9.53
2023-02-07T13:30:21.542Z,9.53
2023-02-07T13:32:35.043Z,9.53
2023-02-07T13:34:54.820Z,9.54
2023-02-07T13:37:16.841Z,9.55
2023-02-07T13:39:45.987Z,9.57
2023-02-07T13:42:09.937Z,9.58
2023-02-07T13:44:28.349Z,9.59
2023-02-07T13:47:12.810Z,9.60
2023-02-07T13:49:41.970Z,9.60
2023-02-07T13:52:02.359Z,9.61
2023-02-07T13:54:32.863Z,9.62
2023-02-07T13:57:18.198Z,9.62
2023-02-07T13:59:42.269Z,9.63
2023-02-07T14:02:02.697Z,9.64
2023-02-07T14:04:17.112Z,9.64
2023-02-07T14:06:34.808Z,9.65
2023-02-07T14:08:48.640Z,9.65
2023-02-07T14:11:02.868Z,9.65
2023-02-07T14:13:37.651Z,9.65
2023-02-07T14:16:10.331Z,9.65
2023-02-07T14:18:46.525Z,9.65
2023-02-07T14:21:06.265Z,9.65
2023-02-07T14:23:23.324Z,9.65
2023-02-07T14:25:47.486Z,9.65
2023-02-07T14:28:33.419Z,9.63
2023-02-07T14:31:05.560Z,9.62
2023-02-07T14:33:23.464Z,9.60
2023-02-07T14:35:41.814Z,9.58
2023-02-07T14:37:58.663Z,9.57
2023-02-07T14:40:22.479Z,9.56
2023-02-07T14:42:35.982Z,9.55
2023-02-07T14:44:52.124Z,9.52
2023-02-07T14:47:07.371Z,9.50
2023-02-07T14:49:27.069Z,9.48
2023-02-07T14:51:46.468Z,9.45
2023-02-07T14:54:12.167Z,9.43
2023-02-07T14:56:41.973Z,9.40
2023-02-07T14:58:58.012Z,9.35
2023-02-07T15:01:17.816Z,9.31
2023-02-07T15:03:35.109Z,9.28
2023-02-07T15:05:54.787Z,9.25
2023-02-07T15:08:21.076Z,9.23
2023-02-07T15:10:36.307Z,9.19
2023-02-07T15:12:50.331Z,9.16
2023-02-07T15:15:03.232Z,9.13
2023-02-07T15:17:16.651Z,9.11
2023-02-07T15:19:36.728Z,9.09
2023-02-07T15:21:50.661Z,9.09
2023-02-07T15:24:07.427Z,9.07
2023-02-07T15:26:24.660Z,9.06
2023-02-07T15:28:38.506Z,9.05
2023-02-07T15:31:04.010Z,9.05
2023-02-07T15:33:24.760Z,9.04
2023-02-07T15:35:43.937Z,9.03
2023-02-07T15:37:58.039Z,9.03
2023-02-07T15:40:17.574Z,9.03
2023-02-07T15:42:31.174Z,9.03
2023-02-07T15:44:54.044Z,9.03
2023-02-07T15:47:09.156Z,9.02
2023-02-07T15:49:36.053Z,9.01
2023-02-07T15:51:49.901Z,9.00
2023-02-07T15:54:05.155Z,8.99
2023-02-07T15:56:21.767Z,9.00
2023-02-07T15:58:39.108Z,9.00
2023-02-07T16:00:53.866Z,9.01
2023-02-07T16:03:11.242Z,9.01
2023-02-07T16:05:30.041Z,9.03
2023-02-07T16:07:48.976Z,9.05
2023-02-07T16:10:19.959Z,9.07
2023-02-07T16:12:46.251Z,9.10
2023-02-07T16:14:59.371Z,9.11
2023-02-07T16:17:29.301Z,9.12
2023-02-07T16:19:49.152Z,9.13
2023-02-07T16:22:08.429Z,9.13
2023-02-07T16:24:24.515Z,9.12
2023-02-07T16:26:39.041Z,9.11
2023-02-07T16:28:52.521Z,9.10
2023-02-07T16:31:07.248Z,9.11
2023-02-07T16:33:21.040Z,9.10
2023-02-07T16:35:34.014Z,9.09
2023-02-07T16:37:47.241Z,9.09
2023-02-07T16:40:00.882Z,9.10
2023-02-07T16:42:17.566Z,9.10
2023-02-07T16:44:32.483Z,9.12
2023-02-07T16:46:45.701Z,9.13
2023-02-07T16:48:58.770Z,9.12
2023-02-07T16:51:13.246Z,9.12
2023-02-07T16:53:27.205Z,9.13
2023-02-07T16:55:42.983Z,9.12
2023-02-07T16:57:56.638Z,9.12
2023-02-07T17:00:11.201Z,9.12
2023-02-07T17:02:24.718Z,9.10
2023-02-07T17:04:37.674Z,9.10
2023-02-07T17:06:51.334Z,9.11
2023-02-07T17:09:04.910Z,9.11
2023-02-07T17:11:26.349Z,9.11
2023-02-07T17:13:39.370Z,9.10
2023-02-07T17:15:53.339Z,9.08
2023-02-07T17:18:07.461Z,9.07
2023-02-07T17:20:28.118Z,9.06
2023-02-07T17:22:41.171Z,9.06
2023-02-07T17:24:54.836Z,9.05
2023-02-07T17:27:07.871Z,9.05
2023-02-07T17:29:22.795Z,9.03
2023-02-07T17:31:35.972Z,9.03
2023-02-07T17:33:49.523Z,9.03
2023-02-07T17:36:02.839Z,9.02
2023-02-07T17:38:16.158Z,9.03
2023-02-07T17:40:34.107Z,9.04
2023-02-07T17:42:48.046Z,9.06
2023-02-07T17:45:02.213Z,9.08
2023-02-07T17:47:15.463Z,9.10
2023-02-07T17:49:29.033Z,9.12
2023-02-07T17:51:42.457Z,9.15
2023-02-07T17:53:57.064Z,9.17
2023-02-07T17:56:21.321Z,9.19
2023-02-07T17:58:35.984Z,9.22
2023-02-07T18:00:49.279Z,9.24
2023-02-07T18:03:02.353Z,9.26
2023-02-07T18:05:20.780Z,9.28
2023-02-07T18:07:34.803Z,9.30
2023-02-07T18:09:48.523Z,9.31
2023-02-07T18:12:04.752Z,9.33
2023-02-07T18:14:17.843Z,9.36
2023-02-07T18:16:32.564Z,9.39
2023-02-07T18:18:46.611Z,9.42
2023-02-07T18:20:59.542Z,9.46
2023-02-07T18:23:14.802Z,9.51
2023-02-07T18:25:29.999Z,9.58
2023-02-07T18:27:43.792Z,9.65
2023-02-07T18:29:56.878Z,9.72
2023-02-07T18:32:10.853Z,9.79
2023-02-07T18:34:24.153Z,9.84
2023-02-07T18:36:41.237Z,9.89
2023-02-07T18:38:54.424Z,9.94
2023-02-07T18:41:13.082Z,9.99
2023-02-07T18:43:26.869Z,10.03
2023-02-07T18:45:43.246Z,10.08
2023-02-07T18:47:57.325Z,10.12
2023-02-07T18:50:11.225Z,10.15
2023-02-07T18:52:24.534Z,10.17
2023-02-07T18:54:37.555Z,10.19
2023-02-07T18:56:53.338Z,10.21
2023-02-07T18:59:07.707Z,10.22
2023-02-07T19:01:24.066Z,10.23
2023-02-07T19:03:37.514Z,10.23
2023-02-07T19:05:51.393Z,10.23
2023-02-07T19:08:04.745Z,10.22
2023-02-07T19:10:18.463Z,10.23
2023-02-07T19:12:32.058Z,10.22
2023-02-07T19:14:45.183Z,10.21
2023-02-07T19:16:58.721Z,10.18
2023-02-07T19:19:13.686Z,10.15
2023-02-07T19:21:29.564Z,10.10
2023-02-07T19:23:42.962Z,10.07
2023-02-07T19:25:56.174Z,10.06
2023-02-07T19:28:09.432Z,10.05
2023-02-07T19:30:23.474Z,10.02
2023-02-07T19:32:36.416Z,10.00
2023-02-07T19:34:50.082Z,10.00
2023-02-07T19:37:03.837Z,10.00
2023-02-07T19:39:17.256Z,10.02
2023-02-07T19:41:34.346Z,10.05
2023-02-07T19:43:47.158Z,10.08
2023-02-07T19:46:02.817Z,10.10
2023-02-07T19:48:16.464Z,10.11
2023-02-07T19:50:29.824Z,10.13
2023-02-07T19:52:43.253Z,10.16
2023-02-07T19:54:57.114Z,10.19
2023-02-07T19:57:12.414Z,10.20
2023-02-07T19:59:26.353Z,10.20
2023-02-07T20:01:41.160Z,10.19
2023-02-07T20:03:56.718Z,10.17
2023-02-07T20:06:14.313Z,10.16
2023-02-07T20:08:28.681Z,10.15
2023-02-07T20:10:47.318Z,10.14
2023-02-07T20:13:00.471Z,10.15
2023-02-07T20:15:15.406Z,10.14
2023-02-07T20:17:28.787Z,10.12
2023-02-07T20:19:42.897Z,10.10
2023-02-07T20:21:55.907Z,10.10
2023-02-07T20:24:10.580Z,10.09
2023-02-07T20:26:25.214Z,10.09
2023-02-07T20:28:39.322Z,10.08
2023-02-07T20:30:52.681Z,10.08
2023-02-07T20:33:05.892Z,10.08
2023-02-07T20:35:19.211Z,10.10
2023-02-07T20:37:34.111Z,10.13
2023-02-07T20:39:47.520Z,10.17
2023-02-07T20:42:00.484Z,10.20
2023-02-07T20:44:15.491Z,10.22
2023-02-07T20:46:29.486Z,10.23
2023-02-07T20:48:42.866Z,10.24
2023-02-07T20:51:04.600Z,10.22
2023-02-07T20:53:17.850Z,10.21
2023-02-07T20:55:31.930Z,10.19
2023-02-07T20:57:46.969Z,10.19
2023-02-07T21:00:00.459Z,10.19
2023-02-07T21:02:15.176Z,10.18
2023-02-07T21:04:29.885Z,10.16
2023-02-07T21:06:44.934Z,10.16
2023-02-07T21:09:02.057Z,10.14
2023-02-07T21:11:17.071Z,10.15
2023-02-07T21:13:31.880Z,10.13
2023-02-07T21:15:52.296Z,10.12
2023-02-07T21:18:15.231Z,10.13
2023-02-07T21:20:28.757Z,10.11
2023-02-07T21:22:42.800Z,10.10
2023-02-07T21:24:56.089Z,10.10
2023-02-07T21:27:10.977Z,10.10
2023-02-07T21:29:25.401Z,10.12
2023-02-07T21:31:39.406Z,10.15
2023-02-07T21:33:53.111Z,10.20
2023-02-07T21:36:17.601Z,10.24
2023-02-07T21:38:31.748Z,10.26
2023-02-07T21:40:46.415Z,10.26
2023-02-07T21:43:00.046Z,10.25
2023-02-07T21:45:14.445Z,10.22
2023-02-07T21:47:27.836Z,10.24
2023-02-07T21:52:07.770Z,10.38
2023-02-07T21:54:21.888Z,10.49
2023-02-07T21:56:36.320Z,10.57
2023-02-07T21:58:50.250Z,10.66
2023-02-07T22:01:11.427Z,10.76
2023-02-07T22:03:25.348Z,10.79
2023-02-07T22:05:38.778Z,10.83
2023-02-07T22:07:52.273Z,10.87
2023-02-07T22:10:06.819Z,10.92
2023-02-07T22:12:19.899Z,11.00
2023-02-07T22:14:33.570Z,11.02
2023-02-07T22:16:47.644Z,11.06
2023-02-07T22:19:02.222Z,11.09
2023-02-07T22:21:18.212Z,11.12
2023-02-07T22:23:31.540Z,11.16
2023-02-07T22:25:47.219Z,11.12
2023-02-07T22:28:00.902Z,11.08
2023-02-07T22:30:16.818Z,11.01
2023-02-07T22:32:30.142Z,10.94
2023-02-07T22:34:43.526Z,10.88
2023-02-07T22:36:56.616Z,10.83
2023-02-07T22:39:11.685Z,10.79
2023-02-07T22:41:25.294Z,10.74
2023-02-07T22:43:39.527Z,10.71
2023-02-07T22:45:53.537Z,10.70
2023-02-07T22:48:08.308Z,10.69
2023-02-07T22:50:22.375Z,10.67
2023-02-07T22:52:36.482Z,10.69
2023-02-07T22:54:49.612Z,10.68
2023-02-07T22:57:02.783Z,10.70
2023-02-07T22:59:17.032Z,10.69
2023-02-07T23:01:33.116Z,10.67
2023-02-07T23:03:46.568Z,10.69
2023-02-07T23:06:00.152Z,10.70
2023-02-07T23:08:13.923Z,10.71
2023-02-07T23:10:28.812Z,10.72
2023-02-07T23:12:42.156Z,10.74
2023-02-07T23:14:55.778Z,10.78
2023-02-07T23:17:10.500Z,10.79
2023-02-07T23:19:23.884Z,10.81
2023-02-07T23:21:38.542Z,10.78
2023-02-07T23:23:52.755Z,10.74
2023-02-07T23:26:06.072Z,10.76
2023-02-07T23:28:20.048Z,10.76
2023-02-07T23:30:34.001Z,10.73
2023-02-07T23:32:47.397Z,10.67
2023-02-07T23:35:00.485Z,10.46
2023-02-07T23:37:13.865Z,10.14
2023-02-07T23:39:27.192Z,10.01
2023-02-07T23:41:40.854Z,9.96
2023-02-07T23:43:56.946Z,9.94
2023-02-07T23:46:13.336Z,9.93
2023-02-07T23:48:26.407Z,9.91
2023-02-07T23:50:40.067Z,9.90
2023-02-07T23:52:53.394Z,9.89
2023-02-07T23:55:06.929Z,9.90
2023-02-07T23:57:20.620Z,9.92
2023-02-07T23:59:33.908Z,9.92
